Time;durP1;ratioP1;P1;durP2;ratioP2;P2;SDS_P1;SDS_P2;PMS_P1;PMS_P2;Temp;Humidity;BMP_temperature;BMP_pressure;BME280_temperature;BME280_humidity;BME280_pressure;Samples;Min_cycle;Max_cycle;Signal;HPM_P1;HPM_P2
2023/08/06 00:00:17;;;;;;;17.23;12.38;;;;;;;;;;4998882;28;20096;-73
2023/08/06 00:02:43;;;;;;;20.02;14.20;;;;;;;;;;5001549;28;22372;-73
2023/08/06 00:05:08;;;;;;;19.05;13.32;;;;;;;;;;5013825;28;20037;-75
2023/08/06 00:07:33;;;;;;;19.10;14.32;;;;;;;;;;5012326;28;20788;-73
2023/08/06 00:10:07;;;;;;;19.95;14.07;;;;;;;;;;4986119;28;20647;-75
2023/08/06 00:12:33;;;;;;;21.92;13.93;;;;;;;;;;5002984;28;20059;-73
2023/08/06 00:14:58;;;;;;;17.98;14.00;;;;;;;;;;5011779;28;21225;-72
2023/08/06 00:17:26;;;;;;;19.55;14.05;;;;;;;;;;5011484;28;20037;-72
2023/08/06 00:19:54;;;;;;;20.52;14.60;;;;;;;;;;5011538;28;20073;-73
2023/08/06 00:22:19;;;;;;;22.73;14.48;;;;;;;;;;4994289;28;20076;-73
2023/08/06 00:24:44;;;;;;;21.80;15.85;;;;;;;;;;5016172;28;22181;-75
2023/08/06 00:27:13;;;;;;;21.58;15.77;;;;;;;;;;4996797;28;20063;-73
2023/08/06 00:29:41;;;;;;;19.92;15.05;;;;;;;;;;5011953;28;20029;-72
2023/08/06 00:32:09;;;;;;;23.50;15.23;;;;;;;;;;5013378;28;20033;-73
2023/08/06 00:34:34;;;;;;;22.65;15.63;;;;;;;;;;5013564;28;20528;-73
2023/08/06 00:37:00;;;;;;;21.92;16.25;;;;;;;;;;5002361;28;20033;-73
2023/08/06 00:39:28;;;;;;;22.30;15.70;;;;;;;;;;4998231;28;20520;-73
2023/08/06 00:41:58;;;;;;;26.05;16.40;;;;;;;;;;4972619;28;20092;-74
2023/08/06 00:44:26;;;;;;;28.27;16.83;;;;;;;;;;4994564;28;20037;-75
2023/08/06 00:46:51;;;;;;;30.15;16.90;;;;;;;;;;4997715;28;20626;-75
2023/08/06 00:49:16;;;;;;;27.02;17.00;;;;;;;;;;5014278;28;20033;-74
2023/08/06 00:51:44;;;;;;;33.50;16.92;;;;;;;;;;4998299;28;20037;-74
2023/08/06 00:54:10;;;;;;;29.90;18.67;;;;;;;;;;5016228;28;20048;-76
2023/08/06 00:56:38;;;;;;;27.88;18.80;;;;;;;;;;4997378;28;20033;-75
2023/08/06 00:59:04;;;;;;;27.02;19.00;;;;;;;;;;4993937;28;20045;-74
2023/08/06 01:01:30;;;;;;;29.35;19.65;;;;;;;;;;5013317;28;21048;-74
2023/08/06 01:03:58;;;;;;;28.75;18.27;;;;;;;;;;4999873;28;20037;-74
2023/08/06 01:06:31;;;;;;;25.48;18.13;;;;;;;;;;5001795;28;20125;-75
2023/08/06 01:09:00;;;;;;;27.50;18.52;;;;;;;;;;5012908;28;20033;-74
2023/08/06 01:11:44;;;;;;;29.38;18.52;;;;;;;;;;5014567;28;20059;-74
2023/08/06 01:14:15;;;;;;;27.30;18.73;;;;;;;;;;5015797;28;22197;-74
2023/08/06 01:16:43;;;;;;;26.85;18.92;;;;;;;;;;5006908;28;20052;-75
2023/08/06 01:19:17;;;;;;;27.52;18.92;;;;;;;;;;5017975;28;20489;-75
2023/08/06 01:21:43;;;;;;;29.10;19.08;;;;;;;;;;4997938;28;20029;-74
2023/08/06 01:24:08;;;;;;;26.60;18.55;;;;;;;;;;5017844;28;20453;-74
2023/08/06 01:26:39;;;;;;;26.80;18.40;;;;;;;;;;5005934;28;20765;-74
2023/08/06 01:29:26;;;;;;;27.35;19.27;;;;;;;;;;5017856;28;20030;-76
2023/08/06 01:31:52;;;;;;;26.17;18.65;;;;;;;;;;5014588;28;20120;-76
2023/08/06 01:34:21;;;;;;;27.75;18.77;;;;;;;;;;5018281;28;20067;-77
2023/08/06 01:36:50;;;;;;;21.27;17.27;;;;;;;;;;5018283;28;20783;-76
2023/08/06 01:39:15;;;;;;;25.92;18.70;;;;;;;;;;5014624;28;20041;-75
2023/08/06 01:41:47;;;;;;;25.10;17.88;;;;;;;;;;4979848;28;20036;-75
2023/08/06 01:44:16;;;;;;;25.30;18.02;;;;;;;;;;4937142;28;20082;-74
2023/08/06 01:46:53;;;;;;;24.88;17.58;;;;;;;;;;5003697;28;20103;-75
2023/08/06 01:49:24;;;;;;;27.23;18.63;;;;;;;;;;5003919;28;20100;-75
2023/08/06 01:51:52;;;;;;;27.35;19.60;;;;;;;;;;4961340;28;20207;-75
2023/08/06 01:54:23;;;;;;;28.58;19.77;;;;;;;;;;4968996;28;20160;-74
2023/08/06 01:56:48;;;;;;;27.65;20.15;;;;;;;;;;4966377;28;20087;-75
2023/08/06 01:59:14;;;;;;;31.05;20.15;;;;;;;;;;5013381;28;20502;-75
2023/08/06 02:01:42;;;;;;;27.05;19.52;;;;;;;;;;5013383;28;20033;-76
2023/08/06 02:04:10;;;;;;;28.17;20.13;;;;;;;;;;5014774;28;20037;-74
2023/08/06 02:06:36;;;;;;;27.80;20.55;;;;;;;;;;4992299;28;20041;-75
2023/08/06 02:09:01;;;;;;;29.33;20.42;;;;;;;;;;4994305;28;20164;-75
2023/08/06 02:11:30;;;;;;;28.45;21.33;;;;;;;;;;5016030;28;20033;-76
2023/08/06 02:13:58;;;;;;;30.33;20.00;;;;;;;;;;5013640;28;20029;-74
2023/08/06 02:16:23;;;;;;;29.40;20.25;;;;;;;;;;5016461;28;20083;-78
2023/08/06 02:18:49;;;;;;;28.88;20.25;;;;;;;;;;5018187;28;20120;-77
2023/08/06 02:21:14;;;;;;;25.63;18.60;;;;;;;;;;5019975;28;20026;-76
2023/08/06 02:23:39;;;;;;;23.67;16.60;;;;;;;;;;5017482;28;20041;-75
2023/08/06 02:26:05;;;;;;;18.15;13.15;;;;;;;;;;5018973;28;22276;-75
2023/08/06 02:28:31;;;;;;;18.38;10.38;;;;;;;;;;5017964;28;20048;-75
2023/08/06 02:30:56;;;;;;;11.60;8.10;;;;;;;;;;5006379;28;20033;-75
2023/08/06 02:33:22;;;;;;;13.00;7.85;;;;;;;;;;5017789;28;20036;-76
2023/08/06 02:35:49;;;;;;;10.70;6.95;;;;;;;;;;4999857;28;20112;-77
2023/08/06 02:38:15;;;;;;;14.15;5.78;;;;;;;;;;5000125;28;20076;-76
2023/08/06 02:40:48;;;;;;;13.32;5.40;;;;;;;;;;5017491;28;21057;-75
2023/08/06 02:43:14;;;;;;;18.42;5.00;;;;;;;;;;5016502;28;20551;-75
2023/08/06 02:45:42;;;;;;;9.82;4.55;;;;;;;;;;5017662;28;20107;-70
2023/08/06 02:48:07;;;;;;;13.50;4.90;;;;;;;;;;4998222;28;20033;-73
2023/08/06 02:50:40;;;;;;;13.40;5.00;;;;;;;;;;5017549;28;20033;-74
2023/08/06 02:53:06;;;;;;;10.98;5.45;;;;;;;;;;5017361;28;20087;-76
2023/08/06 02:55:31;;;;;;;12.18;5.55;;;;;;;;;;4999680;28;20045;-74
2023/08/06 02:57:57;;;;;;;12.63;4.78;;;;;;;;;;4995228;28;20511;-74
2023/08/06 03:00:22;;;;;;;9.10;4.65;;;;;;;;;;5014755;28;20037;-74
2023/08/06 03:02:48;;;;;;;9.77;4.80;;;;;;;;;;5012660;28;20470;-75
2023/08/06 03:05:13;;;;;;;10.95;4.72;;;;;;;;;;4998926;28;20049;-75
2023/08/06 03:07:39;;;;;;;10.18;4.30;;;;;;;;;;4998097;28;20037;-76
2023/08/06 03:10:04;;;;;;;10.88;4.53;;;;;;;;;;4999892;28;20936;-74
2023/08/06 03:12:30;;;;;;;11.68;4.10;;;;;;;;;;5007302;28;20163;-76
2023/08/06 03:14:55;;;;;;;11.13;4.40;;;;;;;;;;4980990;28;20036;-76
2023/08/06 03:17:20;;;;;;;12.32;4.38;;;;;;;;;;5014718;28;21850;-76
2023/08/06 03:19:46;;;;;;;6.35;4.28;;;;;;;;;;5005905;28;20041;-75
2023/08/06 03:22:11;;;;;;;12.02;4.07;;;;;;;;;;5013382;28;20556;-76
2023/08/06 03:24:37;;;;;;;8.95;3.80;;;;;;;;;;4970364;28;20033;-72
2023/08/06 03:27:03;;;;;;;9.23;4.22;;;;;;;;;;4993847;28;20547;-73
2023/08/06 03:29:28;;;;;;;10.00;4.85;;;;;;;;;;5014116;28;20037;-72
2023/08/06 03:31:56;;;;;;;7.43;4.18;;;;;;;;;;5014663;28;20032;-73
2023/08/06 03:34:21;;;;;;;10.52;4.03;;;;;;;;;;4987475;28;20055;-72
2023/08/06 03:36:47;;;;;;;10.77;3.60;;;;;;;;;;4995967;28;20037;-73
2023/08/06 03:39:13;;;;;;;8.88;3.70;;;;;;;;;;5013939;28;20043;-72
2023/08/06 03:41:39;;;;;;;8.73;3.60;;;;;;;;;;4998194;28;20148;-72
2023/08/06 03:44:05;;;;;;;9.82;3.83;;;;;;;;;;5011255;28;20932;-72
2023/08/06 03:46:33;;;;;;;8.63;4.07;;;;;;;;;;5013016;28;20053;-72
2023/08/06 03:48:59;;;;;;;7.60;3.80;;;;;;;;;;4990069;28;20033;-72
2023/08/06 03:51:25;;;;;;;7.35;3.58;;;;;;;;;;4986085;28;20504;-72
2023/08/06 03:53:50;;;;;;;5.13;3.45;;;;;;;;;;4999623;28;20033;-72
2023/08/06 03:56:15;;;;;;;4.03;3.15;;;;;;;;;;5014151;28;20048;-73
2023/08/06 03:58:41;;;;;;;5.07;3.60;;;;;;;;;;5012336;28;20045;-72
2023/08/06 04:01:06;;;;;;;6.15;3.60;;;;;;;;;;5015185;28;20155;-73
2023/08/06 04:03:32;;;;;;;5.72;3.75;;;;;;;;;;5015010;28;20073;-72
2023/08/06 04:05:57;;;;;;;7.32;3.85;;;;;;;;;;4998667;28;21635;-72
2023/08/06 04:08:25;;;;;;;9.13;4.30;;;;;;;;;;5014558;28;20043;-73
2023/08/06 04:10:53;;;;;;;9.48;4.28;;;;;;;;;;5016916;28;20037;-73
2023/08/06 04:13:18;;;;;;;9.02;4.50;;;;;;;;;;5016948;28;20497;-73
2023/08/06 04:15:44;;;;;;;8.93;4.60;;;;;;;;;;5016466;28;20041;-73
2023/08/06 04:18:12;;;;;;;6.20;4.30;;;;;;;;;;4998849;28;20048;-72
2023/08/06 04:20:44;;;;;;;8.48;4.63;;;;;;;;;;5014321;28;20122;-72
2023/08/06 04:23:10;;;;;;;10.38;4.57;;;;;;;;;;4978821;28;20616;-72
2023/08/06 04:25:35;;;;;;;18.92;4.93;;;;;;;;;;5016225;28;20048;-74
2023/08/06 04:28:00;;;;;;;7.50;4.80;;;;;;;;;;5002864;28;20048;-75
2023/08/06 04:30:26;;;;;;;9.27;5.05;;;;;;;;;;5006922;28;20033;-75
2023/08/06 04:32:51;;;;;;;9.50;5.30;;;;;;;;;;5017540;28;20087;-75
2023/08/06 04:35:16;;;;;;;7.22;4.85;;;;;;;;;;5018457;28;20125;-74
2023/08/06 04:37:42;;;;;;;7.55;4.93;;;;;;;;;;5022316;28;20063;-75
2023/08/06 04:40:08;;;;;;;11.45;5.00;;;;;;;;;;5002659;28;20037;-73
2023/08/06 04:42:33;;;;;;;5.40;4.47;;;;;;;;;;4999630;28;20037;-74
2023/08/06 04:44:58;;;;;;;7.50;4.78;;;;;;;;;;5021003;28;20041;-75
2023/08/06 04:47:26;;;;;;;6.90;4.90;;;;;;;;;;5028240;28;20127;-75
2023/08/06 04:49:51;;;;;;;13.50;6.00;;;;;;;;;;5029212;28;20090;-75
2023/08/06 04:52:20;;;;;;;16.27;6.30;;;;;;;;;;5025925;28;20034;-75
2023/08/06 04:54:46;;;;;;;15.75;6.25;;;;;;;;;;5026763;28;20866;-75
2023/08/06 04:57:11;;;;;;;15.35;6.88;;;;;;;;;;5008928;28;20083;-75
2023/08/06 04:59:36;;;;;;;12.02;6.10;;;;;;;;;;5000894;28;20033;-73
2023/08/06 05:02:02;;;;;;;11.50;7.05;;;;;;;;;;4994378;28;20604;-73
2023/08/06 05:04:27;;;;;;;10.95;7.03;;;;;;;;;;5009215;28;20120;-73
2023/08/06 05:06:53;;;;;;;14.85;5.97;;;;;;;;;;4998818;28;20132;-74
2023/08/06 05:09:19;;;;;;;10.20;6.50;;;;;;;;;;5005806;28;20061;-74
2023/08/06 05:11:46;;;;;;;12.20;6.40;;;;;;;;;;5018035;28;20036;-74
2023/08/06 05:14:11;;;;;;;12.30;6.72;;;;;;;;;;5014339;28;20557;-75
2023/08/06 05:16:37;;;;;;;11.73;6.65;;;;;;;;;;4998113;28;20044;-74
2023/08/06 05:19:07;;;;;;;10.23;5.53;;;;;;;;;;4987758;28;20044;-74
2023/08/06 05:21:33;;;;;;;16.20;5.97;;;;;;;;;;5016509;28;20444;-73
2023/08/06 05:23:58;;;;;;;13.57;5.93;;;;;;;;;;5008058;28;20086;-76
2023/08/06 05:26:26;;;;;;;17.67;5.90;;;;;;;;;;4959019;28;20299;-75
2023/08/06 05:28:54;;;;;;;10.43;5.45;;;;;;;;;;5000633;28;20041;-75
2023/08/06 05:31:19;;;;;;;10.70;5.70;;;;;;;;;;4994996;28;20142;-76
2023/08/06 05:33:45;;;;;;;13.20;5.90;;;;;;;;;;4999323;28;20036;-76
2023/08/06 05:36:10;;;;;;;10.35;5.75;;;;;;;;;;5016038;28;20037;-76
2023/08/06 05:38:35;;;;;;;8.80;5.82;;;;;;;;;;5018373;28;20033;-74
2023/08/06 05:41:01;;;;;;;15.45;5.82;;;;;;;;;;5017791;28;20037;-74
2023/08/06 05:43:26;;;;;;;10.65;6.28;;;;;;;;;;5018160;28;20600;-74
2023/08/06 05:45:52;;;;;;;9.57;5.82;;;;;;;;;;5016877;28;20037;-75
2023/08/06 05:48:17;;;;;;;9.05;5.10;;;;;;;;;;5014074;28;22318;-75
2023/08/06 05:50:42;;;;;;;14.65;6.10;;;;;;;;;;5014295;28;20430;-74
2023/08/06 05:53:08;;;;;;;12.77;5.47;;;;;;;;;;5012657;28;20047;-74
2023/08/06 05:55:33;;;;;;;13.57;5.30;;;;;;;;;;5012035;28;20045;-74
2023/08/06 05:57:59;;;;;;;11.23;4.60;;;;;;;;;;4999229;28;20144;-77
2023/08/06 06:00:24;;;;;;;13.82;5.03;;;;;;;;;;5012967;28;20040;-75
2023/08/06 06:02:50;;;;;;;8.50;4.38;;;;;;;;;;5003165;28;20045;-74
2023/08/06 06:05:15;;;;;;;10.50;4.72;;;;;;;;;;5014527;28;20049;-72
2023/08/06 06:07:43;;;;;;;10.50;4.80;;;;;;;;;;5011594;28;20044;-72
2023/08/06 06:10:08;;;;;;;12.40;4.93;;;;;;;;;;4998070;28;20037;-74
2023/08/06 06:12:34;;;;;;;10.60;4.60;;;;;;;;;;5017103;28;20040;-73
2023/08/06 06:15:00;;;;;;;10.18;4.50;;;;;;;;;;4995486;28;20037;-74
2023/08/06 06:17:29;;;;;;;7.65;4.50;;;;;;;;;;5003361;28;20103;-74
2023/08/06 06:19:54;;;;;;;15.50;4.80;;;;;;;;;;4987126;28;20052;-73
2023/08/06 06:22:19;;;;;;;11.52;4.80;;;;;;;;;;5014547;28;20689;-73
2023/08/06 06:24:45;;;;;;;13.07;4.60;;;;;;;;;;5017177;28;20048;-74
2023/08/06 06:27:10;;;;;;;9.63;4.10;;;;;;;;;;5002154;28;20048;-69
2023/08/06 06:29:35;;;;;;;12.82;4.10;;;;;;;;;;5009699;28;20040;-75
2023/08/06 06:32:01;;;;;;;16.67;4.50;;;;;;;;;;4988713;28;20041;-76
2023/08/06 06:34:26;;;;;;;14.57;4.72;;;;;;;;;;4959066;28;20791;-70
2023/08/06 06:36:54;;;;;;;15.80;4.75;;;;;;;;;;4980089;28;20040;-73
2023/08/06 06:39:20;;;;;;;17.23;4.47;;;;;;;;;;4985564;28;20045;-76
2023/08/06 06:41:49;;;;;;;7.93;4.15;;;;;;;;;;4984911;28;20046;-74
2023/08/06 06:44:17;;;;;;;10.40;3.78;;;;;;;;;;4975819;28;20047;-75
2023/08/06 06:46:42;;;;;;;10.52;4.18;;;;;;;;;;5014165;28;20045;-76
2023/08/06 06:49:10;;;;;;;14.35;4.35;;;;;;;;;;4989497;28;20852;-72
2023/08/06 06:51:36;;;;;;;18.50;4.93;;;;;;;;;;5002855;28;20041;-75
2023/08/06 06:54:01;;;;;;;13.15;4.32;;;;;;;;;;5016412;28;22345;-72
2023/08/06 06:56:26;;;;;;;10.18;4.55;;;;;;;;;;5016776;28;20044;-74
2023/08/06 06:58:55;;;;;;;15.07;4.40;;;;;;;;;;5017298;28;20107;-73
2023/08/06 07:01:20;;;;;;;11.45;3.95;;;;;;;;;;5014508;28;20121;-72
2023/08/06 07:03:45;;;;;;;13.68;4.05;;;;;;;;;;5006160;28;20029;-71
2023/08/06 07:06:12;;;;;;;14.20;4.28;;;;;;;;;;4979710;28;20041;-73
2023/08/06 07:08:43;;;;;;;9.85;3.83;;;;;;;;;;5002950;28;20029;-72
2023/08/06 07:11:09;;;;;;;14.40;3.85;;;;;;;;;;4986322;28;20190;-72
2023/08/06 07:13:34;;;;;;;13.65;3.50;;;;;;;;;;5013321;28;20555;-67
2023/08/06 07:16:03;;;;;;;13.05;3.65;;;;;;;;;;5014120;28;20045;-72
2023/08/06 07:18:28;;;;;;;10.93;3.72;;;;;;;;;;5014876;28;20054;-72
2023/08/06 07:20:54;;;;;;;7.07;3.20;;;;;;;;;;5015830;28;20417;-70
2023/08/06 07:23:23;;;;;;;6.80;3.10;;;;;;;;;;4995940;28;20663;-73
2023/08/06 07:25:48;;;;;;;9.43;3.35;;;;;;;;;;5000244;28;20147;-70
2023/08/06 07:28:14;;;;;;;10.65;3.33;;;;;;;;;;4997780;28;20078;-72
2023/08/06 07:30:40;;;;;;;11.23;3.05;;;;;;;;;;5016743;28;20061;-72
2023/08/06 07:33:06;;;;;;;9.02;3.20;;;;;;;;;;5015657;28;20040;-71
2023/08/06 07:35:31;;;;;;;8.77;3.03;;;;;;;;;;5015412;28;20809;-71
2023/08/06 07:37:56;;;;;;;12.57;3.15;;;;;;;;;;5016155;28;20049;-70
2023/08/06 07:40:22;;;;;;;8.75;3.15;;;;;;;;;;5015645;28;20640;-71
2023/08/06 07:42:47;;;;;;;6.88;2.80;;;;;;;;;;5014151;28;20124;-71
2023/08/06 07:45:12;;;;;;;8.77;2.90;;;;;;;;;;5001702;28;20037;-72
2023/08/06 07:47:38;;;;;;;7.72;2.65;;;;;;;;;;5013198;28;20033;-71
2023/08/06 07:50:03;;;;;;;10.60;2.90;;;;;;;;;;4995223;28;20072;-70
2023/08/06 07:52:29;;;;;;;9.35;2.30;;;;;;;;;;5014815;28;20064;-71
2023/08/06 07:54:54;;;;;;;13.65;2.85;;;;;;;;;;4996123;28;20037;-72
2023/08/06 07:57:19;;;;;;;6.57;1.95;;;;;;;;;;5000623;28;20196;-74
2023/08/06 07:59:45;;;;;;;8.35;2.00;;;;;;;;;;5012433;28;20034;-74
2023/08/06 08:02:18;;;;;;;10.05;2.30;;;;;;;;;;5013187;28;20057;-73
2023/08/06 08:04:47;;;;;;;7.85;1.92;;;;;;;;;;4996347;28;21123;-75
2023/08/06 08:07:20;;;;;;;10.07;2.05;;;;;;;;;;5011707;28;20096;-74
2023/08/06 08:09:51;;;;;;;9.18;1.95;;;;;;;;;;4988828;28;20036;-73
2023/08/06 08:12:19;;;;;;;8.20;1.95;;;;;;;;;;4988972;28;20051;-75
2023/08/06 08:14:47;;;;;;;7.45;1.85;;;;;;;;;;5018451;28;20028;-75
2023/08/06 08:17:13;;;;;;;4.93;1.60;;;;;;;;;;4983704;28;20103;-73
2023/08/06 08:19:39;;;;;;;5.95;1.55;;;;;;;;;;4975601;28;20356;-75
2023/08/06 08:22:08;;;;;;;7.78;1.50;;;;;;;;;;4975613;28;20120;-76
2023/08/06 08:24:33;;;;;;;5.10;1.40;;;;;;;;;;5011527;28;20198;-75
2023/08/06 08:27:03;;;;;;;8.98;1.50;;;;;;;;;;5006226;28;20461;-75
2023/08/06 08:29:31;;;;;;;6.82;1.52;;;;;;;;;;4985682;28;21775;-75
2023/08/06 08:31:56;;;;;;;7.03;1.00;;;;;;;;;;4991885;28;20037;-70
2023/08/06 08:34:22;;;;;;;6.90;1.35;;;;;;;;;;4995573;28;20034;-77
2023/08/06 08:36:47;;;;;;;6.68;1.60;;;;;;;;;;5011279;28;20037;-74
2023/08/06 08:39:15;;;;;;;6.25;1.52;;;;;;;;;;4985959;28;20045;-75
2023/08/06 08:41:46;;;;;;;6.63;1.60;;;;;;;;;;5004777;28;20094;-75
2023/08/06 08:44:16;;;;;;;9.25;1.48;;;;;;;;;;4990642;28;20038;-72
2023/08/06 08:46:42;;;;;;;7.82;1.67;;;;;;;;;;4992539;28;20091;-75
2023/08/06 08:49:08;;;;;;;6.20;1.48;;;;;;;;;;5008793;28;20045;-77
2023/08/06 08:51:35;;;;;;;8.30;1.60;;;;;;;;;;5004497;28;20037;-76
2023/08/06 08:54:02;;;;;;;5.72;1.05;;;;;;;;;;5004273;28;20100;-74
2023/08/06 08:56:28;;;;;;;6.25;1.55;;;;;;;;;;5011164;28;20033;-72
2023/08/06 08:58:55;;;;;;;6.97;1.70;;;;;;;;;;5010416;28;20056;-74
2023/08/06 09:01:23;;;;;;;7.47;1.25;;;;;;;;;;5002639;28;20047;-74
2023/08/06 09:03:49;;;;;;;7.43;1.70;;;;;;;;;;5003132;28;20486;-76
2023/08/06 09:06:15;;;;;;;7.75;2.00;;;;;;;;;;4995251;28;20049;-77
2023/08/06 09:08:49;;;;;;;6.65;1.70;;;;;;;;;;5014094;28;20139;-74
2023/08/06 09:11:15;;;;;;;8.13;1.60;;;;;;;;;;4988199;28;20075;-74
2023/08/06 09:13:43;;;;;;;8.88;2.03;;;;;;;;;;4980176;28;20148;-71
2023/08/06 09:16:08;;;;;;;6.40;1.55;;;;;;;;;;4973577;28;20094;-71
2023/08/06 09:18:33;;;;;;;4.07;1.30;;;;;;;;;;4985104;28;20037;-72
2023/08/06 09:21:04;;;;;;;3.33;1.33;;;;;;;;;;5011361;28;20059;-72
2023/08/06 09:23:30;;;;;;;9.18;1.70;;;;;;;;;;5001592;28;20059;-73
2023/08/06 09:25:56;;;;;;;6.50;1.48;;;;;;;;;;4983825;28;21045;-77
2023/08/06 09:28:24;;;;;;;6.97;1.70;;;;;;;;;;5010877;28;20095;-74
2023/08/06 09:30:54;;;;;;;8.77;1.83;;;;;;;;;;5010679;28;20034;-75
2023/08/06 09:33:22;;;;;;;9.02;2.00;;;;;;;;;;5012520;28;20037;-75
2023/08/06 09:35:48;;;;;;;8.90;1.65;;;;;;;;;;5004133;28;20061;-74
2023/08/06 09:38:13;;;;;;;6.95;1.52;;;;;;;;;;5015843;28;20131;-73
2023/08/06 09:40:42;;;;;;;8.15;1.83;;;;;;;;;;4995582;28;20033;-75
2023/08/06 09:43:07;;;;;;;7.53;1.60;;;;;;;;;;4998423;28;21697;-73
2023/08/06 09:45:34;;;;;;;9.10;2.00;;;;;;;;;;5011699;28;20061;-74
2023/08/06 09:48:03;;;;;;;8.00;1.73;;;;;;;;;;4997855;28;20029;-74
2023/08/06 09:50:31;;;;;;;8.70;1.77;;;;;;;;;;5008780;28;20036;-74
2023/08/06 09:52:56;;;;;;;7.30;1.73;;;;;;;;;;5010006;28;20072;-74
2023/08/06 09:55:22;;;;;;;5.40;1.27;;;;;;;;;;4997014;28;20094;-74
2023/08/06 09:57:49;;;;;;;6.40;1.42;;;;;;;;;;5010185;28;20076;-74
2023/08/06 10:00:14;;;;;;;7.53;1.67;;;;;;;;;;4985793;28;20041;-73
2023/08/06 10:02:40;;;;;;;9.30;1.60;;;;;;;;;;4975110;28;20091;-74
2023/08/06 10:05:07;;;;;;;7.80;1.40;;;;;;;;;;4996649;28;20029;-73
2023/08/06 10:07:33;;;;;;;10.13;1.50;;;;;;;;;;5009638;28;20651;-73
2023/08/06 10:09:59;;;;;;;7.60;1.52;;;;;;;;;;5002383;28;20043;-72
2023/08/06 10:12:25;;;;;;;13.07;1.75;;;;;;;;;;4984940;28;20562;-72
2023/08/06 10:14:53;;;;;;;4.68;1.23;;;;;;;;;;4992870;28;20044;-70
2023/08/06 10:17:22;;;;;;;7.13;1.40;;;;;;;;;;5001919;28;20068;-71
2023/08/06 10:19:48;;;;;;;7.55;1.65;;;;;;;;;;5012844;28;20124;-68
2023/08/06 10:22:13;;;;;;;9.98;1.65;;;;;;;;;;5009393;28;20037;-70
2023/08/06 10:24:48;;;;;;;6.00;1.40;;;;;;;;;;4980510;28;20087;-71
2023/08/06 10:27:13;;;;;;;12.18;1.70;;;;;;;;;;5009527;28;20049;-70
2023/08/06 10:29:41;;;;;;;11.70;1.88;;;;;;;;;;4971025;28;20041;-71
2023/08/06 10:32:07;;;;;;;7.35;1.50;;;;;;;;;;4973464;28;20037;-71
2023/08/06 10:35:00;;;;;;;7.35;1.45;;;;;;;;;;5003026;28;20139;-72
2023/08/06 10:37:37;;;;;;;9.18;1.95;;;;;;;;;;4940259;28;20041;-72
2023/08/06 10:40:03;;;;;;;7.53;2.03;;;;;;;;;;4982460;28;20042;-71
2023/08/06 10:42:31;;;;;;;6.25;1.88;;;;;;;;;;5008011;28;20567;-72
2023/08/06 10:45:16;;;;;;;14.40;2.80;;;;;;;;;;5002151;28;20518;-71
2023/08/06 10:47:45;;;;;;;10.30;2.00;;;;;;;;;;5005579;28;20068;-73
2023/08/06 10:50:12;;;;;;;11.65;1.98;;;;;;;;;;4992443;28;20138;-74
2023/08/06 10:52:40;;;;;;;7.47;1.75;;;;;;;;;;5005620;28;20084;-72
2023/08/06 10:55:06;;;;;;;9.63;2.30;;;;;;;;;;4989314;28;20040;-72
2023/08/06 10:57:33;;;;;;;8.63;1.70;;;;;;;;;;4999997;28;20132;-74
2023/08/06 11:00:04;;;;;;;8.95;2.28;;;;;;;;;;4990640;28;20041;-73
2023/08/06 11:02:33;;;;;;;14.32;2.20;;;;;;;;;;5006494;28;20075;-73
2023/08/06 11:05:01;;;;;;;4.97;1.60;;;;;;;;;;4986887;28;20052;-71
2023/08/06 11:07:38;;;;;;;8.52;1.60;;;;;;;;;;5020263;27;21390;-74
2023/08/06 11:10:05;;;;;;;5.07;1.88;;;;;;;;;;5054689;27;20033;-74
2023/08/06 11:12:31;;;;;;;8.05;2.30;;;;;;;;;;5017961;28;20375;-74
2023/08/06 11:14:59;;;;;;;5.65;1.70;;;;;;;;;;5018376;28;20041;-76
2023/08/06 11:17:25;;;;;;;6.97;1.70;;;;;;;;;;5009963;28;20596;-77
2023/08/06 11:19:51;;;;;;;7.13;1.90;;;;;;;;;;5004311;28;21906;-75
2023/08/06 11:22:17;;;;;;;6.85;1.42;;;;;;;;;;5005684;28;20029;-76
2023/08/06 11:24:42;;;;;;;7.05;1.52;;;;;;;;;;5006499;28;21013;-74
2023/08/06 11:27:14;;;;;;;6.65;1.48;;;;;;;;;;5005560;28;20132;-74
2023/08/06 11:29:46;;;;;;;8.00;1.67;;;;;;;;;;5007058;28;22014;-73
2023/08/06 11:32:12;;;;;;;5.70;1.55;;;;;;;;;;5007243;28;20041;-73
2023/08/06 11:34:37;;;;;;;3.40;1.48;;;;;;;;;;5022704;27;20982;-74
2023/08/06 11:37:05;;;;;;;6.05;1.30;;;;;;;;;;5027262;27;20029;-74
2023/08/06 11:39:31;;;;;;;6.55;1.90;;;;;;;;;;4993855;28;20091;-74
2023/08/06 11:41:57;;;;;;;4.97;1.15;;;;;;;;;;5035000;28;20083;-71
2023/08/06 11:44:24;;;;;;;6.75;1.40;;;;;;;;;;5004894;28;22646;-73
2023/08/06 11:46:55;;;;;;;7.88;1.40;;;;;;;;;;5005943;28;20095;-75
2023/08/06 11:49:21;;;;;;;6.00;1.90;;;;;;;;;;5005928;28;20065;-73
2023/08/06 11:51:49;;;;;;;6.22;1.63;;;;;;;;;;5005311;28;20044;-74
2023/08/06 11:54:30;;;;;;;4.82;1.58;;;;;;;;;;5013034;27;21899;-73
2023/08/06 11:56:55;;;;;;;6.93;1.48;;;;;;;;;;5010176;28;20095;-74
2023/08/06 11:59:26;;;;;;;5.20;1.67;;;;;;;;;;5008662;28;20115;-71
2023/08/06 12:01:52;;;;;;;9.48;1.75;;;;;;;;;;5027078;27;20037;-73
2023/08/06 12:04:17;;;;;;;8.45;1.48;;;;;;;;;;5027652;27;20033;-72
2023/08/06 12:06:43;;;;;;;14.13;1.90;;;;;;;;;;5028670;27;20156;-70
2023/08/06 12:09:10;;;;;;;9.52;1.92;;;;;;;;;;5025993;27;20072;-70
2023/08/06 12:11:35;;;;;;;6.15;1.75;;;;;;;;;;5028157;27;20049;-72
2023/08/06 12:14:06;;;;;;;6.60;1.40;;;;;;;;;;5006426;27;20123;-72
2023/08/06 12:16:32;;;;;;;5.43;1.17;;;;;;;;;;5055346;27;20037;-72
2023/08/06 12:18:57;;;;;;;4.50;1.45;;;;;;;;;;5010244;28;20034;-72
2023/08/06 12:21:25;;;;;;;5.07;1.30;;;;;;;;;;4995999;28;20720;-71
2023/08/06 12:23:50;;;;;;;5.95;1.60;;;;;;;;;;4993117;28;20041;-71
2023/08/06 12:26:18;;;;;;;5.28;1.17;;;;;;;;;;5013691;28;20041;-72
2023/08/06 12:28:43;;;;;;;6.78;1.50;;;;;;;;;;4995322;28;20064;-71
2023/08/06 12:31:11;;;;;;;10.93;1.65;;;;;;;;;;5025768;28;21042;-71
2023/08/06 12:33:36;;;;;;;4.90;1.50;;;;;;;;;;4993783;28;20100;-72
2023/08/06 12:36:02;;;;;;;10.60;1.67;;;;;;;;;;4992130;28;20083;-71
2023/08/06 12:38:27;;;;;;;7.72;1.38;;;;;;;;;;4994219;28;20038;-71
2023/08/06 12:40:56;;;;;;;7.30;1.60;;;;;;;;;;4993597;28;20037;-71
2023/08/06 12:43:21;;;;;;;6.53;1.42;;;;;;;;;;4994350;28;20415;-69
2023/08/06 12:45:48;;;;;;;7.05;1.67;;;;;;;;;;4994038;28;20053;-70
2023/08/06 12:48:14;;;;;;;6.65;1.60;;;;;;;;;;4991989;28;20041;-71
2023/08/06 12:50:39;;;;;;;6.47;1.63;;;;;;;;;;4995699;28;20417;-71
2023/08/06 12:53:05;;;;;;;5.72;1.45;;;;;;;;;;5000540;28;20047;-68
2023/08/06 12:55:30;;;;;;;11.10;1.75;;;;;;;;;;4999162;28;20075;-72
2023/08/06 12:57:56;;;;;;;10.65;1.70;;;;;;;;;;4995536;28;20311;-68
2023/08/06 13:00:23;;;;;;;7.18;1.40;;;;;;;;;;4989167;28;20446;-72
2023/08/06 13:02:48;;;;;;;7.30;1.45;;;;;;;;;;5011361;28;20417;-67
2023/08/06 13:05:14;;;;;;;7.15;1.58;;;;;;;;;;5014573;28;20601;-70
2023/08/06 13:07:39;;;;;;;5.00;1.58;;;;;;;;;;4992863;28;20045;-69
2023/08/06 13:10:05;;;;;;;7.18;1.77;;;;;;;;;;4995937;28;20067;-72
2023/08/06 13:12:30;;;;;;;8.63;1.50;;;;;;;;;;4994372;28;20569;-71
2023/08/06 13:14:58;;;;;;;7.43;1.60;;;;;;;;;;4991494;28;20130;-72
2023/08/06 13:17:23;;;;;;;6.78;1.48;;;;;;;;;;4997320;28;20958;-70
2023/08/06 13:19:51;;;;;;;8.02;1.58;;;;;;;;;;4993819;28;20071;-70
2023/08/06 13:22:16;;;;;;;10.52;2.00;;;;;;;;;;4995946;28;20124;-71
2023/08/06 13:24:41;;;;;;;14.40;2.00;;;;;;;;;;4991875;28;20045;-72
2023/08/06 13:27:07;;;;;;;16.77;2.30;;;;;;;;;;4979476;28;20050;-74
2023/08/06 13:29:32;;;;;;;13.35;3.00;;;;;;;;;;4992448;28;20041;-71
2023/08/06 13:31:58;;;;;;;12.57;2.53;;;;;;;;;;4994837;28;20052;-75
2023/08/06 13:34:23;;;;;;;14.27;2.88;;;;;;;;;;4997755;28;20161;-71
2023/08/06 13:36:49;;;;;;;15.05;2.30;;;;;;;;;;5001654;28;20030;-74
2023/08/06 13:39:17;;;;;;;15.77;2.78;;;;;;;;;;4995464;28;20564;-75
2023/08/06 13:41:42;;;;;;;19.70;2.08;;;;;;;;;;4989000;28;20033;-72
2023/08/06 13:44:07;;;;;;;12.10;2.25;;;;;;;;;;5024687;28;20087;-71
2023/08/06 13:46:33;;;;;;;14.70;2.40;;;;;;;;;;5037443;28;20052;-74
2023/08/06 13:48:58;;;;;;;16.40;2.63;;;;;;;;;;4998201;28;20060;-71
2023/08/06 13:51:23;;;;;;;13.65;2.10;;;;;;;;;;5009918;28;20041;-71
2023/08/06 13:53:48;;;;;;;13.30;2.30;;;;;;;;;;5019746;28;20048;-71
2023/08/06 13:56:17;;;;;;;23.90;3.30;;;;;;;;;;5017103;28;20038;-72
2023/08/06 13:58:43;;;;;;;14.40;2.45;;;;;;;;;;5003551;28;20106;-71
2023/08/06 14:01:13;;;;;;;15.52;2.38;;;;;;;;;;4988223;28;20037;-71
2023/08/06 14:03:38;;;;;;;12.45;2.40;;;;;;;;;;4995483;28;20800;-71
2023/08/06 14:06:03;;;;;;;17.02;2.42;;;;;;;;;;4996960;28;20049;-71
2023/08/06 14:08:28;;;;;;;18.40;2.55;;;;;;;;;;4993894;28;20033;-73
2023/08/06 14:10:54;;;;;;;15.07;2.67;;;;;;;;;;4996610;28;20033;-71
2023/08/06 14:13:19;;;;;;;14.18;2.55;;;;;;;;;;4997095;28;20033;-71
2023/08/06 14:15:46;;;;;;;13.35;2.13;;;;;;;;;;4995642;28;20045;-70
2023/08/06 14:18:15;;;;;;;14.10;2.08;;;;;;;;;;4993840;28;20037;-72
2023/08/06 14:20:41;;;;;;;17.35;2.80;;;;;;;;;;4993778;28;20136;-67
2023/08/06 14:23:06;;;;;;;17.02;2.67;;;;;;;;;;4997900;28;20038;-70
2023/08/06 14:25:32;;;;;;;19.00;3.92;;;;;;;;;;4995979;28;20060;-69
2023/08/06 14:27:57;;;;;;;18.25;2.55;;;;;;;;;;4995375;28;20084;-71
2023/08/06 14:30:23;;;;;;;16.83;2.92;;;;;;;;;;4997621;28;20871;-70